Time;durP1;ratioP1;P1;durP2;ratioP2;P2;SDS_P1;SDS_P2;PMS_P1;PMS_P2;Temp;Humidity;BMP_temperature;BMP_pressure;BME280_temperature;BME280_humidity;BME280_pressure;Samples;Min_cycle;Max_cycle;Signal;HPM_P1;HPM_P2
2023/03/29 00:02:21;;;;;;;11.38;5.82;;;;;;;;;;5063808;28;20420;-81
2023/03/29 00:04:47;;;;;;;8.48;5.40;;;;;;;;;;5065424;28;20429;-80
2023/03/29 00:07:15;;;;;;;11.90;5.80;;;;;;;;;;5064049;28;20409;-81
2023/03/29 00:09:41;;;;;;;9.48;5.68;;;;;;;;;;5061081;28;20415;-81
2023/03/29 00:12:08;;;;;;;9.65;4.90;;;;;;;;;;5064173;28;20503;-80
2023/03/29 00:14:34;;;;;;;9.82;5.63;;;;;;;;;;5066302;28;20430;-80
2023/03/29 00:17:00;;;;;;;9.65;5.60;;;;;;;;;;5065585;28;20438;-81
2023/03/29 00:19:34;;;;;;;9.43;5.88;;;;;;;;;;5060852;28;20413;-81
2023/03/29 00:22:00;;;;;;;11.40;6.20;;;;;;;;;;5066443;28;20432;-81
2023/03/29 00:24:28;;;;;;;8.07;5.53;;;;;;;;;;5066955;28;20425;-81
2023/03/29 00:26:55;;;;;;;6.72;5.57;;;;;;;;;;5062509;28;20426;-80
2023/03/29 00:29:21;;;;;;;6.85;5.38;;;;;;;;;;5059790;28;20426;-80
2023/03/29 00:31:52;;;;;;;10.55;5.13;;;;;;;;;;5063653;28;20429;-81
2023/03/29 00:34:18;;;;;;;8.60;5.50;;;;;;;;;;5065334;28;20451;-81
2023/03/29 00:36:45;;;;;;;7.78;5.35;;;;;;;;;;5062552;28;20427;-81
2023/03/29 00:39:11;;;;;;;9.30;5.70;;;;;;;;;;5064880;28;20432;-80
2023/03/29 00:41:39;;;;;;;10.70;5.60;;;;;;;;;;5059405;28;20428;-81
2023/03/29 00:44:07;;;;;;;6.97;5.07;;;;;;;;;;5066083;28;20431;-81
2023/03/29 00:46:34;;;;;;;10.03;5.60;;;;;;;;;;5066499;28;20929;-81
2023/03/29 00:49:03;;;;;;;10.10;5.43;;;;;;;;;;5064989;28;20435;-81
2023/03/29 00:51:30;;;;;;;10.38;5.43;;;;;;;;;;5066439;28;20420;-81
2023/03/29 00:53:59;;;;;;;11.70;5.10;;;;;;;;;;5061803;28;20442;-80
2023/03/29 00:56:28;;;;;;;9.70;5.05;;;;;;;;;;5062163;28;20919;-81
2023/03/29 00:58:58;;;;;;;10.93;5.30;;;;;;;;;;5061071;28;20445;-80
2023/03/29 01:01:27;;;;;;;7.85;4.72;;;;;;;;;;5060934;28;20477;-80
2023/03/29 01:03:58;;;;;;;9.73;4.95;;;;;;;;;;5063379;28;20427;-81
2023/03/29 01:06:27;;;;;;;10.10;5.30;;;;;;;;;;5063045;28;20454;-81
2023/03/29 01:08:56;;;;;;;8.70;4.57;;;;;;;;;;5059776;28;20445;-81
2023/03/29 01:11:25;;;;;;;9.07;5.05;;;;;;;;;;5061022;28;20425;-81
2023/03/29 01:13:54;;;;;;;8.10;5.05;;;;;;;;;;5060599;28;20408;-81
2023/03/29 01:16:24;;;;;;;8.15;5.22;;;;;;;;;;5062457;28;20443;-81
2023/03/29 01:18:51;;;;;;;7.60;5.30;;;;;;;;;;5063556;28;20420;-81
2023/03/29 01:21:20;;;;;;;10.10;5.10;;;;;;;;;;5059588;28;20477;-81
2023/03/29 01:23:57;;;;;;;6.83;5.00;;;;;;;;;;5065960;28;20413;-80
2023/03/29 01:26:27;;;;;;;8.65;5.22;;;;;;;;;;5061430;28;20943;-80
2023/03/29 01:28:57;;;;;;;10.50;5.20;;;;;;;;;;5068164;28;20408;-81
2023/03/29 01:31:25;;;;;;;7.88;4.80;;;;;;;;;;5058895;28;20423;-80
2023/03/29 01:33:55;;;;;;;10.38;5.32;;;;;;;;;;5061615;28;20417;-80
2023/03/29 01:36:25;;;;;;;9.38;5.43;;;;;;;;;;5064313;28;20411;-81
2023/03/29 01:38:54;;;;;;;9.05;5.43;;;;;;;;;;5061073;28;20485;-80
2023/03/29 01:41:20;;;;;;;10.48;5.50;;;;;;;;;;5061270;28;20488;-80
2023/03/29 01:43:50;;;;;;;7.75;5.00;;;;;;;;;;5059361;28;20419;-81
2023/03/29 01:46:23;;;;;;;8.48;5.68;;;;;;;;;;5064582;28;20432;-80
2023/03/29 01:48:51;;;;;;;10.20;4.87;;;;;;;;;;5062704;28;20465;-81
2023/03/29 01:51:21;;;;;;;8.18;5.13;;;;;;;;;;5062282;28;20920;-81
2023/03/29 01:53:51;;;;;;;7.32;5.35;;;;;;;;;;5061588;28;20417;-81
2023/03/29 01:56:19;;;;;;;8.32;5.50;;;;;;;;;;5063752;28;20428;-81
2023/03/29 01:58:47;;;;;;;7.80;5.37;;;;;;;;;;5064215;28;20408;-80
2023/03/29 02:01:17;;;;;;;11.63;5.53;;;;;;;;;;5063793;28;20435;-81
2023/03/29 02:03:48;;;;;;;10.07;5.43;;;;;;;;;;5054505;28;20941;-80
2023/03/29 02:06:19;;;;;;;9.20;5.53;;;;;;;;;;5062145;28;20429;-80
2023/03/29 02:08:47;;;;;;;12.65;6.30;;;;;;;;;;5061419;28;20411;-80
2023/03/29 02:11:13;;;;;;;7.90;5.90;;;;;;;;;;5061329;28;20425;-81
2023/03/29 02:13:40;;;;;;;10.05;5.68;;;;;;;;;;5059649;28;20417;-80
2023/03/29 02:16:10;;;;;;;9.77;5.67;;;;;;;;;;5062548;28;20536;-81
2023/03/29 02:18:38;;;;;;;9.93;5.97;;;;;;;;;;5066842;28;20898;-80
2023/03/29 02:21:06;;;;;;;7.25;6.22;;;;;;;;;;5067660;28;20477;-80
2023/03/29 02:23:37;;;;;;;8.48;5.38;;;;;;;;;;5067438;28;20431;-80
2023/03/29 02:26:05;;;;;;;8.30;6.22;;;;;;;;;;5068480;28;20500;-81
2023/03/29 02:28:32;;;;;;;9.93;6.03;;;;;;;;;;5071035;28;20424;-81
2023/03/29 02:31:03;;;;;;;7.70;5.00;;;;;;;;;;5066714;28;20975;-81
2023/03/29 02:33:32;;;;;;;9.70;6.60;;;;;;;;;;5071675;28;20912;-80
2023/03/29 02:36:00;;;;;;;10.15;7.18;;;;;;;;;;5073191;28;20435;-81
2023/03/29 02:38:30;;;;;;;8.93;6.10;;;;;;;;;;5069244;28;20997;-81
2023/03/29 02:40:57;;;;;;;11.35;6.93;;;;;;;;;;5072377;28;20409;-81
2023/03/29 02:43:24;;;;;;;10.23;7.20;;;;;;;;;;5069871;28;20427;-81
2023/03/29 02:45:50;;;;;;;8.10;6.40;;;;;;;;;;5072456;28;20435;-81
2023/03/29 02:48:18;;;;;;;10.50;7.00;;;;;;;;;;5071747;28;20433;-80
2023/03/29 02:50:47;;;;;;;9.70;7.47;;;;;;;;;;5070024;28;20427;-80
2023/03/29 02:53:15;;;;;;;10.33;6.90;;;;;;;;;;5066356;28;20435;-80
2023/03/29 02:55:45;;;;;;;9.30;7.57;;;;;;;;;;5063449;28;20431;-80
2023/03/29 02:58:12;;;;;;;10.65;7.65;;;;;;;;;;5064931;28;20427;-80
2023/03/29 03:00:41;;;;;;;12.18;7.10;;;;;;;;;;5065485;28;20424;-79
2023/03/29 03:03:08;;;;;;;11.23;8.32;;;;;;;;;;5067221;28;20459;-79
2023/03/29 03:05:35;;;;;;;13.85;7.50;;;;;;;;;;5063493;28;20419;-80
2023/03/29 03:08:03;;;;;;;8.45;7.40;;;;;;;;;;5063118;28;20438;-79
2023/03/29 03:10:29;;;;;;;13.30;9.25;;;;;;;;;;5064467;28;20523;-79
2023/03/29 03:12:57;;;;;;;11.43;8.20;;;;;;;;;;5064050;28;20797;-80
2023/03/29 03:15:25;;;;;;;14.40;9.30;;;;;;;;;;5065747;28;20415;-80
2023/03/29 03:17:51;;;;;;;15.10;9.25;;;;;;;;;;5066209;28;20828;-80
2023/03/29 03:20:21;;;;;;;11.13;9.07;;;;;;;;;;5070100;28;20419;-80
2023/03/29 03:22:48;;;;;;;11.88;8.85;;;;;;;;;;5069013;28;20434;-82
2023/03/29 03:25:15;;;;;;;14.25;8.48;;;;;;;;;;5066562;28;20467;-80
2023/03/29 03:27:42;;;;;;;10.75;9.35;;;;;;;;;;5062677;28;20435;-81
2023/03/29 03:30:11;;;;;;;12.77;8.73;;;;;;;;;;5060363;28;20429;-79
2023/03/29 03:32:37;;;;;;;16.95;9.93;;;;;;;;;;5068028;28;20978;-79
2023/03/29 03:35:04;;;;;;;12.93;9.57;;;;;;;;;;5063440;28;20427;-79
2023/03/29 03:37:31;;;;;;;12.70;9.88;;;;;;;;;;5065862;28;20428;-79
2023/03/29 03:39:58;;;;;;;13.20;9.40;;;;;;;;;;5061430;28;20424;-79
2023/03/29 03:42:26;;;;;;;15.18;10.40;;;;;;;;;;5070521;28;20413;-79
2023/03/29 03:44:56;;;;;;;15.70;10.95;;;;;;;;;;5063896;28;20425;-79
2023/03/29 03:47:24;;;;;;;17.23;11.35;;;;;;;;;;5063984;28;20431;-79
2023/03/29 03:49:50;;;;;;;15.82;11.77;;;;;;;;;;5065814;28;20516;-79
2023/03/29 03:52:16;;;;;;;19.25;12.20;;;;;;;;;;5064799;28;20445;-80
2023/03/29 03:54:45;;;;;;;16.37;12.37;;;;;;;;;;5067882;28;20476;-79
2023/03/29 03:57:11;;;;;;;18.83;12.85;;;;;;;;;;5064305;28;20454;-79
2023/03/29 03:59:38;;;;;;;21.42;13.18;;;;;;;;;;5064564;28;20782;-79
2023/03/29 04:02:05;;;;;;;18.20;14.00;;;;;;;;;;5066945;28;20423;-80
2023/03/29 04:04:34;;;;;;;17.75;14.02;;;;;;;;;;5067591;28;20932;-79
2023/03/29 04:07:02;;;;;;;17.90;14.77;;;;;;;;;;5068544;28;20431;-79
2023/03/29 04:09:30;;;;;;;20.80;15.38;;;;;;;;;;5060138;28;20425;-79
2023/03/29 04:11:56;;;;;;;18.88;15.45;;;;;;;;;;5066620;28;20425;-81
2023/03/29 04:14:22;;;;;;;19.27;15.60;;;;;;;;;;5064877;28;20463;-79
2023/03/29 04:16:49;;;;;;;19.85;15.52;;;;;;;;;;5061450;28;20913;-79
2023/03/29 04:19:15;;;;;;;22.05;16.85;;;;;;;;;;5064226;28;20413;-80
2023/03/29 04:21:44;;;;;;;20.83;15.40;;;;;;;;;;5064630;28;20421;-79
2023/03/29 04:24:11;;;;;;;23.67;16.23;;;;;;;;;;5065752;28;20887;-79
2023/03/29 04:26:38;;;;;;;20.65;16.60;;;;;;;;;;5063687;28;20960;-79
2023/03/29 04:29:04;;;;;;;21.95;16.77;;;;;;;;;;5063129;28;20421;-79
2023/03/29 04:31:31;;;;;;;21.85;17.40;;;;;;;;;;5061932;28;20441;-79
2023/03/29 04:33:57;;;;;;;23.10;17.00;;;;;;;;;;5068095;28;21704;-81
2023/03/29 04:36:24;;;;;;;20.60;15.87;;;;;;;;;;5064173;28;20950;-81
2023/03/29 04:38:52;;;;;;;21.60;17.13;;;;;;;;;;5061985;28;20467;-79
2023/03/29 04:41:19;;;;;;;21.52;16.80;;;;;;;;;;5064435;28;20955;-79
2023/03/29 04:43:47;;;;;;;26.40;18.13;;;;;;;;;;5062064;28;20907;-79
2023/03/29 04:46:13;;;;;;;20.00;16.83;;;;;;;;;;5065072;28;20427;-81
2023/03/29 04:48:40;;;;;;;21.45;16.85;;;;;;;;;;5066417;28;21009;-81
2023/03/29 04:51:07;;;;;;;23.20;17.25;;;;;;;;;;5064483;28;20437;-81
2023/03/29 04:53:35;;;;;;;22.38;17.20;;;;;;;;;;5062969;28;20530;-81
2023/03/29 04:56:03;;;;;;;22.35;16.80;;;;;;;;;;5063066;28;20457;-80
2023/03/29 04:58:29;;;;;;;20.30;16.38;;;;;;;;;;5062003;28;20441;-81
2023/03/29 05:00:57;;;;;;;21.33;17.52;;;;;;;;;;5064083;28;20431;-81
2023/03/29 05:03:24;;;;;;;21.88;16.38;;;;;;;;;;5063494;28;20458;-80
2023/03/29 05:05:50;;;;;;;18.98;15.32;;;;;;;;;;5066137;28;20430;-81
2023/03/29 05:08:17;;;;;;;20.83;15.65;;;;;;;;;;5064209;28;20419;-80
2023/03/29 05:10:44;;;;;;;21.10;15.80;;;;;;;;;;5066398;28;20449;-81
2023/03/29 05:13:12;;;;;;;21.45;15.90;;;;;;;;;;5071496;28;20440;-81
2023/03/29 05:15:38;;;;;;;22.02;15.00;;;;;;;;;;5067241;28;20419;-80
2023/03/29 05:18:04;;;;;;;21.10;15.90;;;;;;;;;;5065851;28;20427;-81
2023/03/29 05:20:31;;;;;;;24.73;16.10;;;;;;;;;;5062900;28;20432;-81
2023/03/29 05:22:58;;;;;;;20.63;15.48;;;;;;;;;;5064713;28;20440;-81
2023/03/29 05:25:25;;;;;;;18.90;14.90;;;;;;;;;;5068618;28;21005;-81
2023/03/29 05:27:52;;;;;;;20.95;14.90;;;;;;;;;;5065721;28;20489;-80
2023/03/29 05:30:19;;;;;;;20.00;15.50;;;;;;;;;;5064691;28;20421;-80
2023/03/29 05:32:46;;;;;;;19.40;15.45;;;;;;;;;;5068652;28;20442;-81
2023/03/29 05:35:13;;;;;;;20.10;15.95;;;;;;;;;;5064213;28;20490;-81
2023/03/29 05:37:39;;;;;;;20.67;15.07;;;;;;;;;;5069621;28;20936;-81
2023/03/29 05:40:08;;;;;;;18.45;13.90;;;;;;;;;;5064611;28;20852;-81
2023/03/29 05:42:35;;;;;;;20.52;14.65;;;;;;;;;;5067677;28;20425;-81
2023/03/29 05:45:02;;;;;;;19.05;14.45;;;;;;;;;;5066530;28;20962;-81
2023/03/29 05:47:30;;;;;;;19.48;14.60;;;;;;;;;;5065725;28;20872;-81
2023/03/29 05:49:57;;;;;;;19.33;13.97;;;;;;;;;;5070891;28;20488;-81
2023/03/29 05:52:23;;;;;;;16.37;13.17;;;;;;;;;;5068111;28;21011;-81
2023/03/29 05:54:50;;;;;;;20.17;14.30;;;;;;;;;;5070773;28;20447;-82
2023/03/29 05:57:16;;;;;;;19.40;14.10;;;;;;;;;;5068681;28;20930;-81
2023/03/29 05:59:43;;;;;;;19.60;13.80;;;;;;;;;;5066657;28;20431;-81
2023/03/29 06:02:09;;;;;;;18.53;14.07;;;;;;;;;;5071890;28;20438;-82
2023/03/29 06:04:38;;;;;;;18.88;13.20;;;;;;;;;;5071639;28;20434;-81
2023/03/29 06:07:05;;;;;;;15.73;12.38;;;;;;;;;;5070626;28;20425;-81
2023/03/29 06:09:32;;;;;;;15.77;11.90;;;;;;;;;;5073792;28;20430;-82
2023/03/29 06:12:00;;;;;;;15.02;12.02;;;;;;;;;;5068072;28;20922;-82
2023/03/29 06:14:27;;;;;;;15.20;10.68;;;;;;;;;;5067797;28;20862;-81
2023/03/29 06:16:54;;;;;;;12.18;10.43;;;;;;;;;;5067764;28;20514;-81
2023/03/29 06:19:20;;;;;;;14.60;10.80;;;;;;;;;;5068322;28;21131;-81
2023/03/29 06:21:48;;;;;;;12.75;10.10;;;;;;;;;;5067594;28;20460;-81
2023/03/29 06:24:15;;;;;;;15.80;10.40;;;;;;;;;;5062012;28;20417;-82
2023/03/29 06:26:41;;;;;;;16.10;10.40;;;;;;;;;;5069428;28;20407;-80
2023/03/29 06:29:09;;;;;;;11.93;10.57;;;;;;;;;;5067018;28;20441;-80
2023/03/29 06:31:35;;;;;;;13.57;10.32;;;;;;;;;;5064112;28;20515;-81
2023/03/29 06:34:03;;;;;;;13.77;10.57;;;;;;;;;;5066975;28;20411;-80
2023/03/29 06:36:30;;;;;;;12.80;10.60;;;;;;;;;;5063622;28;20439;-80
2023/03/29 06:38:58;;;;;;;12.15;10.38;;;;;;;;;;5069221;28;20444;-80
2023/03/29 06:41:25;;;;;;;11.95;10.10;;;;;;;;;;5066597;28;20446;-79
2023/03/29 06:43:52;;;;;;;13.18;10.00;;;;;;;;;;5069953;28;20511;-80
2023/03/29 06:46:18;;;;;;;12.20;9.27;;;;;;;;;;5068107;28;20416;-80
2023/03/29 06:48:47;;;;;;;13.23;9.88;;;;;;;;;;5063487;28;20424;-80
2023/03/29 06:51:13;;;;;;;14.43;10.07;;;;;;;;;;5067314;28;20498;-80
2023/03/29 06:53:40;;;;;;;11.25;9.30;;;;;;;;;;5065816;28;20407;-81
2023/03/29 06:56:08;;;;;;;11.68;10.00;;;;;;;;;;5065709;28;20427;-80
2023/03/29 06:58:36;;;;;;;10.90;9.23;;;;;;;;;;5061440;28;20465;-80
2023/03/29 07:01:02;;;;;;;11.35;9.27;;;;;;;;;;5067153;28;20413;-80
2023/03/29 07:03:33;;;;;;;11.50;8.80;;;;;;;;;;5065673;28;20429;-80
2023/03/29 07:06:02;;;;;;;12.43;9.00;;;;;;;;;;5064048;28;20429;-80
2023/03/29 07:08:30;;;;;;;12.43;9.52;;;;;;;;;;5064079;28;20925;-81
2023/03/29 07:10:58;;;;;;;13.38;9.60;;;;;;;;;;5063499;28;20468;-81
2023/03/29 07:13:26;;;;;;;11.02;9.27;;;;;;;;;;5062453;28;20424;-81
2023/03/29 07:15:54;;;;;;;13.52;9.20;;;;;;;;;;5064098;28;20412;-81
2023/03/29 07:18:21;;;;;;;10.95;8.90;;;;;;;;;;5063095;28;20405;-80
2023/03/29 07:20:48;;;;;;;11.70;9.13;;;;;;;;;;5066122;28;20918;-81
2023/03/29 07:23:14;;;;;;;12.30;9.50;;;;;;;;;;5068497;28;20823;-81
2023/03/29 07:25:40;;;;;;;12.27;9.60;;;;;;;;;;5067251;28;20973;-81
2023/03/29 07:28:07;;;;;;;13.63;8.75;;;;;;;;;;5067254;28;20416;-80
2023/03/29 07:30:35;;;;;;;10.65;8.90;;;;;;;;;;5067394;28;20412;-80
2023/03/29 07:33:03;;;;;;;11.40;9.07;;;;;;;;;;5061603;28;20423;-81
2023/03/29 07:35:29;;;;;;;11.40;8.38;;;;;;;;;;5064149;28;20423;-81
2023/03/29 07:37:57;;;;;;;10.73;8.95;;;;;;;;;;5066140;28;20413;-82
2023/03/29 07:40:24;;;;;;;11.23;9.45;;;;;;;;;;5059026;28;20479;-81
2023/03/29 07:42:52;;;;;;;11.05;8.68;;;;;;;;;;5069720;28;20503;-81
2023/03/29 07:45:19;;;;;;;12.80;9.27;;;;;;;;;;5065779;28;20978;-81
2023/03/29 07:47:53;;;;;;;12.02;8.88;;;;;;;;;;5064778;28;21164;-80
2023/03/29 07:50:20;;;;;;;13.40;8.80;;;;;;;;;;5068991;28;20429;-81
2023/03/29 07:52:47;;;;;;;13.15;9.15;;;;;;;;;;5065270;28;20427;-80
2023/03/29 07:55:13;;;;;;;10.95;9.05;;;;;;;;;;5069509;28;20412;-80
2023/03/29 07:57:40;;;;;;;13.20;8.60;;;;;;;;;;5064384;28;20429;-83
2023/03/29 08:00:13;;;;;;;12.45;9.00;;;;;;;;;;5068765;28;20474;-82
2023/03/29 08:02:40;;;;;;;10.32;8.80;;;;;;;;;;5067063;28;20497;-82
2023/03/29 08:05:09;;;;;;;16.00;10.27;;;;;;;;;;5069688;28;21102;-81
2023/03/29 08:07:36;;;;;;;13.13;9.70;;;;;;;;;;5066951;28;20413;-82
2023/03/29 08:10:03;;;;;;;11.60;9.87;;;;;;;;;;5068314;28;20502;-82
2023/03/29 08:12:29;;;;;;;13.48;10.13;;;;;;;;;;5066326;28;20942;-82
2023/03/29 08:14:56;;;;;;;10.57;9.43;;;;;;;;;;5068102;28;20415;-82
2023/03/29 08:17:22;;;;;;;12.23;9.73;;;;;;;;;;5063140;28;20498;-81
2023/03/29 08:19:49;;;;;;;13.35;9.23;;;;;;;;;;5065994;28;20427;-82
2023/03/29 08:22:17;;;;;;;12.02;9.95;;;;;;;;;;5064052;28;20406;-81
2023/03/29 08:24:43;;;;;;;14.87;10.57;;;;;;;;;;5062488;28;20789;-82
2023/03/29 08:27:10;;;;;;;15.00;10.88;;;;;;;;;;5063842;28;20426;-81
2023/03/29 08:29:36;;;;;;;14.80;10.20;;;;;;;;;;5063661;28;20428;-82
2023/03/29 08:32:03;;;;;;;13.25;9.88;;;;;;;;;;5062269;28;20427;-81
2023/03/29 08:34:30;;;;;;;13.77;10.30;;;;;;;;;;5066606;28;20419;-81
2023/03/29 08:36:57;;;;;;;13.40;10.90;;;;;;;;;;5068657;28;20423;-82
2023/03/29 08:39:25;;;;;;;14.95;11.32;;;;;;;;;;5066087;28;20469;-82
2023/03/29 08:41:57;;;;;;;15.02;11.10;;;;;;;;;;5065860;28;20421;-82
2023/03/29 08:44:36;;;;;;;17.60;11.40;;;;;;;;;;5064292;28;20420;-82
2023/03/29 08:47:10;;;;;;;14.93;11.50;;;;;;;;;;5067619;28;20411;-82
2023/03/29 08:49:38;;;;;;;15.85;12.07;;;;;;;;;;5061075;28;20423;-82
2023/03/29 08:52:06;;;;;;;15.02;12.45;;;;;;;;;;5062432;28;20480;-82
2023/03/29 08:54:41;;;;;;;14.10;12.60;;;;;;;;;;5065161;28;20429;-82
2023/03/29 08:57:15;;;;;;;18.73;13.30;;;;;;;;;;5061044;28;20427;-82
2023/03/29 08:59:44;;;;;;;15.82;13.00;;;;;;;;;;5067845;28;20424;-82
2023/03/29 09:02:16;;;;;;;16.60;14.10;;;;;;;;;;5063483;28;20410;-82
2023/03/29 09:04:43;;;;;;;20.20;13.65;;;;;;;;;;5061699;28;20420;-81
2023/03/29 09:07:10;;;;;;;18.30;14.50;;;;;;;;;;5065259;28;20510;-82
2023/03/29 09:09:38;;;;;;;21.02;14.95;;;;;;;;;;5061387;28;20413;-82
2023/03/29 09:12:08;;;;;;;18.98;14.65;;;;;;;;;;5063435;28;20433;-82
2023/03/29 09:14:56;;;;;;;19.27;15.07;;;;;;;;;;5065837;28;20416;-82
2023/03/29 09:17:28;;;;;;;21.98;16.38;;;;;;;;;;5055686;28;20517;-82
2023/03/29 09:19:56;;;;;;;18.90;16.35;;;;;;;;;;5064497;28;20427;-81
2023/03/29 09:22:27;;;;;;;20.00;16.55;;;;;;;;;;5065308;28;20407;-81
2023/03/29 09:24:58;;;;;;;19.80;16.70;;;;;;;;;;5059158;28;20782;-81
2023/03/29 09:27:26;;;;;;;21.52;16.50;;;;;;;;;;5062775;28;20420;-82
2023/03/29 09:29:58;;;;;;;22.30;18.10;;;;;;;;;;5064068;28;20427;-81
2023/03/29 09:32:29;;;;;;;21.73;17.90;;;;;;;;;;5061952;28;20431;-81
2023/03/29 09:35:00;;;;;;;24.48;18.70;;;;;;;;;;5065665;28;20420;-82
2023/03/29 09:37:31;;;;;;;22.70;17.92;;;;;;;;;;5068241;28;20433;-82
2023/03/29 09:39:59;;;;;;;20.75;18.35;;;;;;;;;;5072242;28;20423;-81
2023/03/29 09:42:27;;;;;;;21.80;18.35;;;;;;;;;;5062445;28;20425;-81
2023/03/29 09:44:57;;;;;;;24.80;18.90;;;;;;;;;;5065958;28;20763;-81
2023/03/29 09:47:25;;;;;;;23.73;18.33;;;;;;;;;;5068301;28;20779;-82
2023/03/29 09:49:55;;;;;;;21.85;17.98;;;;;;;;;;5069945;28;20518;-81
2023/03/29 09:52:22;;;;;;;21.20;18.45;;;;;;;;;;5067647;28;20772;-81
2023/03/29 09:54:50;;;;;;;23.50;19.35;;;;;;;;;;5067445;28;20414;-82
2023/03/29 09:57:19;;;;;;;22.05;18.50;;;;;;;;;;5062212;28;20456;-82
2023/03/29 09:59:46;;;;;;;22.10;19.30;;;;;;;;;;5066335;28;20793;-82
2023/03/29 10:02:14;;;;;;;23.00;18.80;;;;;;;;;;5069222;28;20801;-82
2023/03/29 10:04:42;;;;;;;23.10;18.75;;;;;;;;;;5067629;28;20437;-82
2023/03/29 10:07:09;;;;;;;22.45;19.35;;;;;;;;;;5065453;28;20423;-82
2023/03/29 10:09:37;;;;;;;29.60;19.40;;;;;;;;;;5068630;28;20435;-82
2023/03/29 10:12:05;;;;;;;22.75;20.30;;;;;;;;;;5070423;28;20439;-82
2023/03/29 10:14:35;;;;;;;23.95;19.63;;;;;;;;;;5065454;28;20415;-82
2023/03/29 10:17:04;;;;;;;25.23;20.98;;;;;;;;;;5070148;28;20415;-82
2023/03/29 10:19:33;;;;;;;26.15;21.30;;;;;;;;;;5067966;28;20435;-82
2023/03/29 10:22:01;;;;;;;28.10;21.50;;;;;;;;;;5066575;28;20415;-82
2023/03/29 10:24:28;;;;;;;27.67;21.52;;;;;;;;;;5067711;28;20943;-82
2023/03/29 10:26:56;;;;;;;26.10;21.10;;;;;;;;;;5065800;28;20417;-82
2023/03/29 10:29:23;;;;;;;26.02;20.60;;;;;;;;;;5064236;28;20422;-82
2023/03/29 10:31:51;;;;;;;27.35;20.83;;;;;;;;;;5070254;28;20949;-82
2023/03/29 10:34:18;;;;;;;24.83;20.20;;;;;;;;;;5067184;28;20419;-80
2023/03/29 10:36:47;;;;;;;24.80;19.90;;;;;;;;;;5067324;28;20413;-80
2023/03/29 10:39:14;;;;;;;25.10;20.25;;;;;;;;;;5069136;28;20422;-80
2023/03/29 10:41:41;;;;;;;24.08;21.15;;;;;;;;;;5067469;28;20786;-80
2023/03/29 10:44:23;;;;;;;23.77;21.15;;;;;;;;;;5070472;28;20419;-82
2023/03/29 10:46:51;;;;;;;24.98;19.85;;;;;;;;;;5067975;28;20426;-80
2023/03/29 10:49:19;;;;;;;24.92;20.10;;;;;;;;;;5070725;28;20417;-80
2023/03/29 10:51:48;;;;;;;23.40;19.60;;;;;;;;;;5067141;28;20420;-79
2023/03/29 10:54:16;;;;;;;22.77;18.92;;;;;;;;;;5062061;28;20424;-81
2023/03/29 10:56:44;;;;;;;22.70;19.00;;;;;;;;;;5062886;28;20785;-82
2023/03/29 10:59:18;;;;;;;21.70;19.30;;;;;;;;;;5068612;28;20465;-80
2023/03/29 11:01:53;;;;;;;22.45;19.40;;;;;;;;;;5061488;28;20412;-80
2023/03/29 11:04:25;;;;;;;25.80;20.97;;;;;;;;;;5063216;28;20428;-80
2023/03/29 11:06:56;;;;;;;27.00;21.55;;;;;;;;;;5066140;28;20437;-82
2023/03/29 11:09:26;;;;;;;24.10;19.20;;;;;;;;;;5064369;28;20415;-82
2023/03/29 11:12:01;;;;;;;26.70;21.13;;;;;;;;;;5066673;28;20491;-82
2023/03/29 11:14:33;;;;;;;24.35;19.77;;;;;;;;;;5064563;28;20425;-82
2023/03/29 11:17:06;;;;;;;23.30;19.92;;;;;;;;;;5063235;28;20463;-82
2023/03/29 11:19:51;;;;;;;26.33;20.00;;;;;;;;;;5070299;28;20435;-80
2023/03/29 11:22:22;;;;;;;22.03;19.63;;;;;;;;;;5063068;28;20416;-80
2023/03/29 11:24:58;;;;;;;24.17;21.10;;;;;;;;;;5064348;28;20913;-80
2023/03/29 11:27:29;;;;;;;23.67;19.75;;;;;;;;;;5062686;28;20965;-82
2023/03/29 11:30:01;;;;;;;26.55;20.42;;;;;;;;;;5065787;28;20416;-82
2023/03/29 11:32:32;;;;;;;21.90;18.80;;;;;;;;;;5069924;28;20433;-81
2023/03/29 11:35:07;;;;;;;24.98;20.02;;;;;;;;;;5062196;28;20434;-82
2023/03/29 11:37:35;;;;;;;20.02;17.90;;;;;;;;;;5066285;28;20988;-82
2023/03/29 11:40:08;;;;;;;21.30;18.43;;;;;;;;;;5067727;28;20421;-82
2023/03/29 11:42:35;;;;;;;23.10;18.60;;;;;;;;;;5063404;28;20476;-82
2023/03/29 11:45:05;;;;;;;20.83;17.30;;;;;;;;;;5063606;28;20413;-81
2023/03/29 11:47:32;;;;;;;18.67;16.67;;;;;;;;;;5066678;28;20422;-82
2023/03/29 11:50:00;;;;;;;18.88;16.80;;;;;;;;;;5068313;28;20447;-81
2023/03/29 11:52:30;;;;;;;20.15;17.30;;;;;;;;;;5063360;28;20420;-82
2023/03/29 11:55:02;;;;;;;20.60;16.98;;;;;;;;;;5063922;28;20436;-82
2023/03/29 11:57:31;;;;;;;19.63;17.05;;;;;;;;;;5065456;28;20419;-82
2023/03/29 12:00:01;;;;;;;18.77;16.77;;;;;;;;;;5068104;28;20509;-82
2023/03/29 12:02:30;;;;;;;18.23;16.33;;;;;;;;;;5062206;28;20419;-82
2023/03/29 12:05:02;;;;;;;18.83;16.65;;;;;;;;;;5063236;28;20430;-82
2023/03/29 12:07:32;;;;;;;19.58;17.20;;;;;;;;;;5063203;28;20420;-82
2023/03/29 12:10:03;;;;;;;19.40;16.30;;;;;;;;;;5061823;28;20893;-82
2023/03/29 12:12:33;;;;;;;19.08;17.08;;;;;;;;;;5061923;28;20938;-82
2023/03/29 12:15:03;;;;;;;19.10;17.00;;;;;;;;;;5066356;28;20424;-81
2023/03/29 12:17:31;;;;;;;19.75;16.55;;;;;;;;;;5063301;28;20428;-82
2023/03/29 12:20:04;;;;;;;16.85;15.15;;;;;;;;;;5065118;28;20936;-82
2023/03/29 12:22:32;;;;;;;20.05;16.25;;;;;;;;;;5064137;28;20451;-81
2023/03/29 12:25:01;;;;;;;18.35;16.42;;;;;;;;;;5063984;28;20419;-82
2023/03/29 12:27:29;;;;;;;20.33;16.80;;;;;;;;;;5063929;28;20416;-80
2023/03/29 12:30:16;;;;;;;19.45;16.40;;;;;;;;;;5062308;28;20857;-80
2023/03/29 12:32:48;;;;;;;17.25;15.43;;;;;;;;;;5060004;28;20423;-81
2023/03/29 12:35:20;;;;;;;16.48;14.77;;;;;;;;;;5064931;28;20423;-82
2023/03/29 12:37:54;;;;;;;17.13;15.33;;;;;;;;;;5066183;28;20420;-81
2023/03/29 12:40:22;;;;;;;17.43;15.63;;;;;;;;;;5065227;28;20432;-80
2023/03/29 12:42:52;;;;;;;16.88;15.07;;;;;;;;;;5063973;28;20417;-81
2023/03/29 12:45:20;;;;;;;19.52;15.90;;;;;;;;;;5062009;28;20413;-80
2023/03/29 12:47:47;;;;;;;17.73;15.82;;;;;;;;;;5062230;28;20426;-80
2023/03/29 12:50:27;;;;;;;17.63;15.70;;;;;;;;;;5057309;28;20910;-80
2023/03/29 12:53:03;;;;;;;17.50;15.60;;;;;;;;;;5061295;28;20974;-80
2023/03/29 12:55:31;;;;;;;18.00;16.10;;;;;;;;;;5062332;28;20424;-80
2023/03/29 12:58:01;;;;;;;20.00;17.20;;;;;;;;;;5061494;28;20420;-80
2023/03/29 13:00:32;;;;;;;18.88;16.35;;;;;;;;;;5061304;28;20415;-80
2023/03/29 13:03:02;;;;;;;19.05;16.88;;;;;;;;;;5064106;28;20442;-80
2023/03/29 13:05:32;;;;;;;21.48;17.23;;;;;;;;;;5062538;28;20416;-81
2023/03/29 13:07:59;;;;;;;21.25;16.83;;;;;;;;;;5060525;28;20426;-80
2023/03/29 13:10:35;;;;;;;19.50;15.93;;;;;;;;;;5059898;28;20427;-80
2023/03/29 13:13:09;;;;;;;18.65;15.35;;;;;;;;;;5064318;28;20409;-80
2023/03/29 13:15:36;;;;;;;20.10;16.70;;;;;;;;;;5065953;28;20429;-81
2023/03/29 13:18:06;;;;;;;19.83;16.67;;;;;;;;;;5063189;28;20419;-80
2023/03/29 13:20:40;;;;;;;22.45;17.40;;;;;;;;;;5060927;28;20409;-81
2023/03/29 13:23:14;;;;;;;22.50;17.67;;;;;;;;;;5063206;28;20443;-81
2023/03/29 13:25:55;;;;;;;19.17;16.40;;;;;;;;;;5055732;28;20437;-80
2023/03/29 13:28:27;;;;;;;18.80;16.45;;;;;;;;;;5058673;28;20922;-80
2023/03/29 13:30:58;;;;;;;18.48;16.35;;;;;;;;;;5063700;28;20406;-80
2023/03/29 13:33:36;;;;;;;19.00;16.88;;;;;;;;;;5057283;28;20886;-80
2023/03/29 13:36:07;;;;;;;16.98;15.18;;;;;;;;;;5060983;28;20814;-81
2023/03/29 13:38:43;;;;;;;18.05;16.15;;;;;;;;;;5058182;28;20413;-81
2023/03/29 13:41:26;;;;;;;17.70;15.30;;;;;;;;;;5059186;28;20432;-80
2023/03/29 13:43:54;;;;;;;20.45;16.20;;;;;;;;;;5060220;28;20463;-81
2023/03/29 13:46:22;;;;;;;17.70;15.80;;;;;;;;;;5061939;28;20416;-80
2023/03/29 13:49:00;;;;;;;17.63;15.93;;;;;;;;;;5062463;28;20421;-80
2023/03/29 13:51:31;;;;;;;17.75;15.88;;;;;;;;;;5062513;28;20411;-80
2023/03/29 13:54:01;;;;;;;18.00;16.30;;;;;;;;;;5062645;28;20427;-80
2023/03/29 13:56:32;;;;;;;19.00;15.98;;;;;;;;;;5064858;28;20462;-80
2023/03/29 13:59:02;;;;;;;19.20;16.52;;;;;;;;;;5056956;28;20483;-80
2023/03/29 14:01:32;;;;;;;20.58;17.17;;;;;;;;;;5062364;28;20420;-80
2023/03/29 14:03:58;;;;;;;22.25;19.00;;;;;;;;;;5061394;28;21137;-81
2023/03/29 14:06:27;;;;;;;18.65;16.65;;;;;;;;;;5069080;28;20413;-80
2023/03/29 14:08:54;;;;;;;17.52;15.75;;;;;;;;;;5061773;28;20411;-80
2023/03/29 14:11:23;;;;;;;19.52;17.23;;;;;;;;;;5063282;28;20430;-81
2023/03/29 14:13:52;;;;;;;18.60;16.70;;;;;;;;;;5061853;28;20938;-80
2023/03/29 14:16:19;;;;;;;18.60;16.70;;;;;;;;;;5063637;28;20427;-82
2023/03/29 14:18:49;;;;;;;18.90;16.90;;;;;;;;;;5062896;28;20824;-80
2023/03/29 14:21:17;;;;;;;18.45;16.55;;;;;;;;;;5061908;28;20449;-81
2023/03/29 14:23:44;;;;;;;19.70;17.80;;;;;;;;;;5066356;28;20430;-80
2023/03/29 14:26:14;;;;;;;18.40;16.50;;;;;;;;;;5067139;28;20423;-80
2023/03/29 14:28:44;;;;;;;18.90;16.88;;;;;;;;;;5068236;28;20895;-81
2023/03/29 14:31:26;;;;;;;19.27;17.30;;;;;;;;;;5065590;28;20937;-81
2023/03/29 14:33:54;;;;;;;21.70;19.33;;;;;;;;;;5065864;28;20449;-81